createdAt,value
2017-09-24T00:04:03.491Z,12.18
2017-09-24T00:08:59.026Z,12.09
2017-09-24T00:13:54.665Z,12.21
2017-09-24T00:18:52.635Z,12.20
2017-09-24T00:23:49.348Z,12.21
2017-09-24T00:28:45.058Z,12.15
2017-09-24T00:33:41.435Z,12.18
2017-09-24T00:38:37.144Z,12.28
2017-09-24T00:43:33.580Z,12.27
2017-09-24T00:48:29.589Z,12.20
2017-09-24T00:53:25.491Z,12.20
2017-09-24T00:58:22.150Z,12.27
2017-09-24T01:03:17.999Z,12.35
2017-09-24T01:08:13.751Z,12.31
2017-09-24T01:13:09.799Z,12.39
2017-09-24T01:18:06.480Z,12.45
2017-09-24T01:23:02.264Z,12.46
2017-09-24T01:27:58.307Z,12.47
2017-09-24T01:32:55.064Z,12.54
2017-09-24T01:37:51.860Z,12.53
2017-09-24T01:42:48.005Z,12.47
2017-09-24T01:47:43.973Z,12.45
2017-09-24T01:52:40.259Z,12.29
2017-09-24T01:57:37.049Z,12.28
2017-09-24T02:02:32.390Z,12.35
2017-09-24T02:07:28.336Z,12.35
2017-09-24T02:12:23.794Z,12.46
2017-09-24T02:17:19.814Z,12.28
2017-09-24T02:22:16.792Z,12.20
2017-09-24T02:27:12.934Z,12.15
2017-09-24T02:32:08.807Z,12.10
2017-09-24T02:37:04.884Z,11.88
2017-09-24T02:42:00.797Z,12.02
2017-09-24T02:46:56.621Z,12.02
2017-09-24T02:51:52.285Z,12.03
2017-09-24T02:56:49.267Z,11.84
2017-09-24T03:01:45.176Z,11.84
2017-09-24T03:06:40.908Z,11.87
2017-09-24T03:11:36.683Z,11.99
2017-09-24T03:16:33.485Z,11.88
2017-09-24T03:21:30.056Z,12.00
2017-09-24T03:26:26.023Z,11.90
2017-09-24T03:31:21.707Z,11.90
2017-09-24T03:36:17.671Z,11.90
2017-09-24T03:41:14.483Z,11.95
2017-09-24T03:46:10.985Z,11.84
2017-09-24T03:51:06.806Z,11.86
2017-09-24T03:56:02.679Z,11.83
2017-09-24T04:00:58.584Z,11.97
2017-09-24T04:05:54.451Z,11.97
2017-09-24T04:10:50.862Z,12.03
2017-09-24T04:15:47.746Z,11.88
2017-09-24T04:20:43.320Z,11.88
2017-09-24T04:25:39.134Z,11.97
2017-09-24T04:30:35.203Z,11.83
2017-09-24T04:35:31.071Z,12.00
2017-09-24T04:40:28.585Z,12.07
2017-09-24T04:45:24.944Z,12.10
2017-09-24T04:50:21.054Z,12.12
2017-09-24T04:55:16.857Z,12.09
2017-09-24T05:00:12.548Z,12.00
2017-09-24T05:05:08.564Z,11.97
2017-09-24T05:10:04.386Z,11.91
2017-09-24T05:15:00.966Z,11.90
2017-09-24T05:19:56.797Z,11.94
2017-09-24T05:24:52.719Z,11.90
2017-09-24T05:29:48.634Z,11.97
2017-09-24T05:34:44.533Z,12.06
2017-09-24T05:39:40.446Z,12.03
2017-09-24T05:44:36.483Z,12.10
2017-09-24T05:49:32.231Z,12.09
2017-09-24T05:54:28.499Z,12.18
2017-09-24T05:59:24.387Z,12.21
2017-09-24T06:04:20.279Z,12.15
2017-09-24T06:09:16.118Z,12.20
2017-09-24T06:14:13.176Z,12.13
2017-09-24T06:19:08.886Z,12.21
2017-09-24T06:24:04.861Z,12.27
2017-09-24T06:29:01.900Z,12.29
2017-09-24T06:33:57.602Z,12.43
2017-09-24T06:38:54.314Z,12.28
2017-09-24T06:43:51.434Z,12.36
2017-09-24T06:48:47.088Z,12.45
2017-09-24T06:53:43.250Z,12.55
2017-09-24T06:58:39.190Z,12.72
2017-09-24T07:03:35.075Z,12.82
2017-09-24T07:08:30.826Z,12.83
2017-09-24T07:13:27.136Z,12.90
2017-09-24T07:18:23.562Z,12.95
2017-09-24T07:23:19.805Z,13.11
2017-09-24T07:28:15.847Z,13.15
2017-09-24T07:33:11.673Z,13.11
2017-09-24T07:38:07.635Z,13.00
2017-09-24T07:43:04.581Z,13.04
2017-09-24T07:48:00.130Z,12.98
2017-09-24T07:52:56.182Z,12.95
2017-09-24T07:57:52.235Z,13.18
2017-09-24T08:02:48.877Z,13.44
2017-09-24T08:07:44.673Z,13.56
2017-09-24T08:12:41.060Z,13.72
2017-09-24T08:17:37.005Z,13.77
2017-09-24T08:22:32.958Z,13.93
2017-09-24T08:27:29.310Z,14.14
2017-09-24T08:32:25.964Z,14.23
2017-09-24T08:37:23.256Z,14.55
2017-09-24T08:42:19.202Z,14.88
2017-09-24T08:47:15.432Z,15.03
2017-09-24T08:52:12.771Z,15.28
2017-09-24T08:57:08.905Z,15.33
2017-09-24T09:02:05.010Z,15.59
2017-09-24T09:07:01.193Z,15.92
2017-09-24T09:11:57.037Z,16.12
2017-09-24T09:16:53.126Z,16.17
2017-09-24T09:21:49.452Z,16.08
2017-09-24T09:26:45.283Z,16.21
2017-09-24T09:31:41.960Z,16.54
2017-09-24T09:36:37.921Z,16.57
2017-09-24T09:41:34.592Z,16.71
2017-09-24T09:46:30.207Z,16.71
2017-09-24T09:51:27.487Z,17.05
2017-09-24T09:56:24.324Z,16.75
2017-09-24T10:01:19.813Z,16.76
2017-09-24T10:06:16.713Z,17.02
2017-09-24T10:11:12.454Z,17.04
2017-09-24T10:16:07.899Z,17.26
2017-09-24T10:21:03.783Z,17.46
2017-09-24T10:26:00.561Z,17.42
2017-09-24T10:30:57.181Z,17.65
2017-09-24T10:35:54.028Z,17.67
2017-09-24T10:40:50.328Z,17.86
2017-09-24T10:45:46.687Z,17.97
2017-09-24T10:50:42.597Z,18.44
2017-09-24T10:55:38.536Z,19.07
2017-09-24T11:00:35.597Z,19.63
2017-09-24T11:05:34.567Z,20.51
2017-09-24T11:10:31.364Z,19.82
2017-09-24T11:15:29.051Z,20.19
2017-09-24T11:20:26.118Z,20.19
2017-09-24T11:25:22.127Z,20.97
2017-09-24T11:30:20.466Z,20.56
2017-09-24T11:35:15.705Z,20.02
2017-09-24T11:40:11.467Z,20.31
2017-09-24T11:45:07.755Z,20.32
2017-09-24T11:50:03.357Z,19.84
2017-09-24T11:55:00.134Z,19.84
2017-09-24T11:59:55.147Z,20.25
2017-09-24T12:04:51.311Z,20.52
2017-09-24T12:09:47.177Z,20.50
2017-09-24T12:14:42.795Z,19.73
2017-09-24T12:19:39.092Z,19.02
2017-09-24T12:24:34.115Z,18.84
2017-09-24T12:29:30.825Z,19.11
2017-09-24T12:34:26.436Z,19.14
2017-09-24T12:39:23.088Z,18.93
2017-09-24T12:44:18.680Z,18.96
2017-09-24T12:49:15.433Z,19.08
2017-09-24T12:54:12.480Z,18.99
2017-09-24T12:59:09.398Z,19.27
2017-09-24T13:04:06.425Z,19.14
2017-09-24T13:09:02.978Z,18.99
2017-09-24T13:13:59.321Z,19.07
2017-09-24T13:18:54.713Z,19.00
2017-09-24T13:23:51.052Z,19.09
2017-09-24T13:28:47.108Z,19.00
2017-09-24T13:33:42.817Z,19.08
2017-09-24T13:38:38.855Z,19.04
2017-09-24T13:43:34.424Z,18.98
2017-09-24T13:48:30.322Z,19.14
2017-09-24T13:53:26.399Z,19.21
2017-09-24T13:58:22.412Z,19.34
2017-09-24T14:03:18.088Z,19.40
2017-09-24T14:08:14.967Z,19.31
2017-09-24T14:13:11.888Z,19.12
2017-09-24T14:18:08.475Z,19.24
2017-09-24T14:23:04.240Z,19.33
2017-09-24T14:28:00.814Z,19.62
2017-09-24T14:32:57.153Z,19.70
2017-09-24T14:37:54.543Z,19.88
2017-09-24T14:42:50.131Z,19.95
2017-09-24T14:47:46.438Z,19.67
2017-09-24T14:52:42.598Z,19.49
2017-09-24T14:57:38.428Z,19.36
2017-09-24T15:02:34.097Z,19.49
2017-09-24T15:07:30.129Z,19.34
2017-09-24T15:12:26.045Z,19.15
2017-09-24T15:17:22.690Z,19.08
2017-09-24T15:22:18.242Z,19.02
2017-09-24T15:27:15.999Z,18.93
2017-09-24T15:32:11.113Z,18.73
2017-09-24T15:37:08.303Z,18.44
2017-09-24T15:42:04.456Z,18.41
2017-09-24T15:47:01.345Z,18.44
2017-09-24T15:51:56.875Z,18.44
2017-09-24T15:56:52.630Z,18.20
2017-09-24T16:01:48.307Z,18.16
2017-09-24T16:06:44.506Z,17.97
2017-09-24T16:11:40.404Z,17.98
2017-09-24T16:16:36.218Z,17.90
2017-09-24T16:21:31.928Z,17.89
2017-09-24T16:26:28.818Z,17.67
2017-09-24T16:31:24.231Z,17.70
2017-09-24T16:36:19.842Z,17.56
2017-09-24T16:41:15.262Z,17.42
2017-09-24T16:46:11.101Z,17.42
2017-09-24T16:51:07.976Z,17.39
2017-09-24T16:56:03.809Z,17.29
2017-09-24T17:00:59.589Z,17.29
2017-09-24T17:05:55.230Z,17.19
2017-09-24T17:10:51.028Z,17.01
2017-09-24T17:15:47.161Z,16.99
2017-09-24T17:20:42.999Z,16.87
2017-09-24T17:25:38.609Z,16.75
2017-09-24T17:30:35.384Z,16.72
2017-09-24T17:35:30.942Z,16.66
2017-09-24T17:40:26.543Z,16.61
2017-09-24T17:45:22.541Z,16.53
2017-09-24T17:50:19.041Z,16.46
2017-09-24T17:55:14.879Z,16.32
2017-09-24T18:00:10.595Z,16.29
2017-09-24T18:05:06.625Z,16.29
2017-09-24T18:10:03.074Z,16.08
2017-09-24T18:14:59.925Z,16.09
2017-09-24T18:19:55.407Z,16.05
2017-09-24T18:24:51.285Z,15.91
2017-09-24T18:29:47.681Z,15.91
2017-09-24T18:34:43.189Z,15.88
2017-09-24T18:39:38.759Z,15.94
2017-09-24T18:44:34.389Z,15.91
2017-09-24T18:49:30.160Z,15.91
2017-09-24T18:54:26.041Z,15.83
2017-09-24T18:59:21.834Z,15.86
2017-09-24T19:04:18.290Z,15.80
2017-09-24T19:09:14.074Z,15.72
2017-09-24T19:14:09.748Z,15.79
2017-09-24T19:19:05.635Z,15.62
2017-09-24T19:24:02.534Z,15.67
2017-09-24T19:29:00.938Z,15.62
2017-09-24T19:33:57.269Z,15.75
2017-09-24T19:38:52.623Z,15.61
2017-09-24T19:43:48.378Z,15.68
2017-09-24T19:48:44.461Z,15.51
2017-09-24T19:53:41.664Z,15.51
2017-09-24T19:58:38.038Z,15.52
2017-09-24T20:03:33.551Z,15.46
2017-09-24T20:08:30.649Z,15.46
2017-09-24T20:13:26.483Z,15.28
2017-09-24T20:18:22.411Z,15.40
2017-09-24T20:23:18.154Z,15.40
2017-09-24T20:28:14.289Z,15.42
2017-09-24T20:33:10.149Z,15.49
2017-09-24T20:38:05.900Z,15.37
2017-09-24T20:43:01.694Z,15.39
2017-09-24T20:47:58.591Z,15.40
2017-09-24T20:52:54.314Z,15.35
2017-09-24T20:57:50.106Z,15.43
2017-09-24T21:02:46.286Z,15.36
2017-09-24T21:07:42.566Z,15.42
2017-09-24T21:12:38.363Z,15.33
2017-09-24T21:17:35.310Z,15.43
2017-09-24T21:22:30.912Z,15.46
2017-09-24T21:27:28.916Z,15.40
2017-09-24T21:32:24.435Z,15.36
2017-09-24T21:37:20.293Z,15.37
2017-09-24T21:42:17.191Z,15.36
2017-09-24T21:47:13.616Z,15.39
2017-09-24T21:52:09.632Z,15.37
2017-09-24T21:57:05.352Z,15.36
2017-09-24T22:02:01.151Z,15.33
2017-09-24T22:06:57.025Z,15.36
2017-09-24T22:11:53.154Z,15.33
2017-09-24T22:16:48.843Z,15.35
2017-09-24T22:21:45.827Z,15.36
2017-09-24T22:26:41.269Z,15.31
2017-09-24T22:31:37.051Z,15.36
2017-09-24T22:36:33.173Z,15.40
2017-09-24T22:41:28.932Z,15.39
2017-09-24T22:46:24.865Z,15.33
2017-09-24T22:51:21.231Z,15.35
2017-09-24T22:56:17.183Z,15.37
2017-09-24T23:01:13.921Z,15.36
2017-09-24T23:06:09.504Z,15.35
2017-09-24T23:11:05.266Z,15.35
2017-09-24T23:16:03.125Z,15.36
2017-09-24T23:20:58.470Z,15.33
2017-09-24T23:25:54.918Z,15.37
2017-09-24T23:30:50.640Z,15.44
2017-09-24T23:35:46.520Z,15.33
2017-09-24T23:40:43.570Z,15.40
2017-09-24T23:45:40.077Z,15.29
2017-09-24T23:50:35.285Z,15.24
2017-09-24T23:55:31.026Z,15.19
